Main page
METAR-TAF:

METAR-TAF

Airports :

Albacete Airport

Albacete, Spain

latitude: 38-57N, longitude: 001-51W, elevation: 702 m

Current weather observation

The report was made 26 minutes ago, at 22:00 UTC
Wind 5 kt from the Southwest
Temperature 26°C
Humidity 32%
Pressure 1016 hPa
Visibility 10 km or more
no clouds below 1500 m and no cumulonimbus

METAR: LEAB 182200Z 22005KT CAVOK 26/08 Q1016 NOSIG

Time: 00:26 (22:26 UTC)

Forecast

The report was made 2 hours and 26 minutes ago, at 20:00 UTC
Forecast valid from 18 at 21 UTC to 19 at 06 UTC
Wind 5 kt from variable directions
Visibility 10 km or more
no clouds below 1500 m and no cumulonimbus
Probability 30% :
Temporary
from 18 at 21 UTC to 18 at 22 UTC
Wind 10 kt from the South/Southwest with gusts up to 25 kt

TAF: LEAB 182000Z 1821/1906 VRB05KT CAVOK PROB30 TEMPO 1821/1822 21010G25KT

Weather observations and forecasts of more than 4000 airports (METAR and TAF reports).

The available stations are represented by yellow and red dots on the map.

Hover mouse over dot to see the name of the station.

Then click to see weather observations and forecasts.

To change the map : click on the green buttons with a black cross to zoom in, on the green button with a dash to zoom out, or on the green arrows for adjacent maps.


METAR-TAF: